createdAt,value
2019-03-13T00:01:25.545Z,89.10
2019-03-13T00:03:53.582Z,90.60
2019-03-13T00:06:21.903Z,92.30
2019-03-13T00:08:49.859Z,92.50
2019-03-13T00:11:17.766Z,92.80
2019-03-13T00:13:46.281Z,94.80
2019-03-13T00:16:20.491Z,95.20
2019-03-13T00:18:48.481Z,94.80
2019-03-13T00:21:16.528Z,94.50
2019-03-13T00:23:44.570Z,93.40
2019-03-13T00:26:12.473Z,92.60
2019-03-13T00:28:40.898Z,91.70
2019-03-13T00:31:08.900Z,88.80
2019-03-13T00:33:36.817Z,86.80
2019-03-13T00:36:05.424Z,90.00
2019-03-13T00:38:33.493Z,90.60
2019-03-13T00:41:01.456Z,89.10
2019-03-13T00:43:30.156Z,87.70
2019-03-13T00:46:00.688Z,87.30
2019-03-13T00:48:30.163Z,83.40
2019-03-13T00:50:58.368Z,81.80
2019-03-13T00:53:26.327Z,83.30
2019-03-13T00:55:54.429Z,84.10
2019-03-13T00:58:25.174Z,87.00
2019-03-13T01:01:17.550Z,87.10
2019-03-13T01:04:08.363Z,88.60
2019-03-13T01:06:39.906Z,90.70
2019-03-13T01:09:08.681Z,91.50
2019-03-13T01:11:38.167Z,91.20
2019-03-13T01:14:06.714Z,91.40
2019-03-13T01:16:36.171Z,92.10
2019-03-13T01:19:05.073Z,92.70
2019-03-13T01:21:35.278Z,94.20
2019-03-13T01:24:04.613Z,93.40
2019-03-13T01:26:34.760Z,93.60
2019-03-13T01:29:03.305Z,93.80
2019-03-13T01:31:41.966Z,91.80
2019-03-13T01:34:23.070Z,90.90
2019-03-13T01:36:51.665Z,91.10
2019-03-13T01:39:19.632Z,91.50
2019-03-13T01:41:47.576Z,92.10
2019-03-13T01:44:15.456Z,91.40
2019-03-13T01:46:43.728Z,91.00
2019-03-13T01:49:11.613Z,90.70
2019-03-13T01:51:39.523Z,90.60
2019-03-13T01:54:07.382Z,90.30
2019-03-13T01:56:35.275Z,90.00
2019-03-13T01:59:03.611Z,87.80
2019-03-13T02:01:32.345Z,87.30
2019-03-13T02:04:01.253Z,87.10
2019-03-13T02:06:30.602Z,86.70
2019-03-13T02:08:58.986Z,86.30
2019-03-13T02:11:27.345Z,87.80
2019-03-13T02:13:55.487Z,89.30
2019-03-13T02:16:23.508Z,90.50
2019-03-13T02:18:51.547Z,90.60
2019-03-13T02:21:19.527Z,90.10
2019-03-13T02:23:47.482Z,90.30
2019-03-13T02:26:17.228Z,90.20
2019-03-13T02:28:46.514Z,90.90
2019-03-13T02:31:14.965Z,91.80
2019-03-13T02:33:44.043Z,93.00
2019-03-13T02:36:12.050Z,94.60
2019-03-13T02:38:40.135Z,95.90
2019-03-13T02:41:08.098Z,96.40
2019-03-13T02:43:36.043Z,97.20
2019-03-13T02:46:04.131Z,98.80
2019-03-13T02:48:33.760Z,99.80
2019-03-13T02:51:01.691Z,99.90
2019-03-13T02:53:29.963Z,99.90
2019-03-13T02:55:57.889Z,99.90
2019-03-13T02:58:26.206Z,99.90
2019-03-13T03:01:04.561Z,99.90
2019-03-13T03:03:35.710Z,99.90
2019-03-13T03:06:04.109Z,99.90
2019-03-13T03:08:32.157Z,99.90
2019-03-13T03:11:00.093Z,99.90
2019-03-13T03:13:28.624Z,99.90
2019-03-13T03:15:56.724Z,99.90
2019-03-13T03:18:25.259Z,99.40
2019-03-13T03:20:53.319Z,99.30
2019-03-13T03:23:21.719Z,99.60
2019-03-13T03:25:49.580Z,99.30
2019-03-13T03:28:18.424Z,99.80
2019-03-13T03:30:49.004Z,99.50
2019-03-13T03:33:17.229Z,98.80
2019-03-13T03:35:45.081Z,97.80
2019-03-13T03:38:13.010Z,97.40
2019-03-13T03:40:41.329Z,97.40
2019-03-13T03:43:09.465Z,96.20
2019-03-13T03:45:38.102Z,95.50
2019-03-13T03:48:06.052Z,95.40
2019-03-13T03:50:34.536Z,94.60
2019-03-13T03:53:02.519Z,94.40
2019-03-13T03:55:31.186Z,93.40
2019-03-13T03:57:59.267Z,93.40
2019-03-13T04:00:28.010Z,92.60
2019-03-13T04:02:57.427Z,92.30
2019-03-13T04:05:25.555Z,91.70
2019-03-13T04:07:53.533Z,91.20
2019-03-13T04:10:22.434Z,90.90
2019-03-13T04:12:50.784Z,90.40
2019-03-13T04:15:20.618Z,90.20
2019-03-13T04:17:48.600Z,90.00
2019-03-13T04:20:37.222Z,90.40
2019-03-13T04:23:05.921Z,91.10
2019-03-13T04:25:37.997Z,91.20
2019-03-13T04:28:07.739Z,90.70
2019-03-13T04:30:35.930Z,91.00
2019-03-13T04:33:03.916Z,91.40
2019-03-13T04:35:32.237Z,92.10
2019-03-13T04:38:00.375Z,92.90
2019-03-13T04:40:28.254Z,94.50
2019-03-13T04:42:56.182Z,95.60
2019-03-13T04:45:24.304Z,96.70
2019-03-13T04:47:52.252Z,98.60
2019-03-13T04:50:20.252Z,99.80
2019-03-13T04:52:48.201Z,99.90
2019-03-13T04:55:16.630Z,99.90
2019-03-13T04:57:44.541Z,99.90
2019-03-13T05:00:13.072Z,99.90
2019-03-13T05:02:41.132Z,99.90
2019-03-13T05:05:47.111Z,99.90
2019-03-13T05:08:44.091Z,99.90
2019-03-13T05:11:01.813Z,99.90
2019-03-13T05:13:29.786Z,99.90
2019-03-13T05:15:58.127Z,99.90
2019-03-13T05:18:26.342Z,99.90
2019-03-13T05:20:54.870Z,99.90
2019-03-13T05:23:22.739Z,99.90
2019-03-13T05:25:50.813Z,99.90
2019-03-13T05:28:18.724Z,99.90
2019-03-13T05:30:46.777Z,99.90
2019-03-13T05:33:14.679Z,99.90
2019-03-13T05:35:42.889Z,99.90
2019-03-13T05:38:11.274Z,99.90
2019-03-13T05:40:39.447Z,99.90
2019-03-13T05:43:07.886Z,99.90
2019-03-13T05:45:36.294Z,99.90
2019-03-13T05:48:04.242Z,99.90
2019-03-13T05:50:32.421Z,99.90
2019-03-13T05:53:00.352Z,99.90
2019-03-13T05:55:28.483Z,99.90
2019-03-13T05:57:57.261Z,99.90
2019-03-13T06:00:27.316Z,99.90
2019-03-13T06:02:55.635Z,99.90
2019-03-13T06:05:23.616Z,99.90
2019-03-13T06:07:51.624Z,99.90
2019-03-13T06:10:19.712Z,99.90
2019-03-13T06:12:48.056Z,99.60
2019-03-13T06:15:15.952Z,99.90
2019-03-13T06:17:43.975Z,99.70
2019-03-13T06:20:12.160Z,99.90
2019-03-13T06:22:40.379Z,99.50
2019-03-13T06:25:09.774Z,99.30
2019-03-13T06:27:38.059Z,98.50
2019-03-13T06:30:08.061Z,99.00
2019-03-13T06:32:36.557Z,98.70
2019-03-13T06:35:05.273Z,98.00
2019-03-13T06:37:33.390Z,98.00
2019-03-13T06:40:02.217Z,98.00
2019-03-13T06:42:30.125Z,97.80
2019-03-13T06:44:58.168Z,97.20
2019-03-13T06:47:26.107Z,96.80
2019-03-13T06:49:54.225Z,96.00
2019-03-13T06:52:22.414Z,96.20
2019-03-13T06:54:50.536Z,94.50
2019-03-13T06:57:18.446Z,95.10
2019-03-13T07:00:04.654Z,95.30
2019-03-13T07:02:43.043Z,94.90
2019-03-13T07:05:24.095Z,94.40
2019-03-13T07:08:14.333Z,94.60
2019-03-13T07:11:16.970Z,95.20
2019-03-13T07:13:59.903Z,94.50
2019-03-13T07:16:50.403Z,94.00
2019-03-13T07:19:40.939Z,93.10
2019-03-13T07:22:50.809Z,91.90
2019-03-13T07:25:34.436Z,89.70
2019-03-13T07:28:13.774Z,87.00
2019-03-13T07:31:06.977Z,87.80
2019-03-13T07:33:52.965Z,89.50
2019-03-13T07:36:27.936Z,90.80
2019-03-13T07:39:24.709Z,91.00
2019-03-13T07:42:04.890Z,91.80
2019-03-13T07:44:51.060Z,92.70
2019-03-13T07:47:44.773Z,93.50
2019-03-13T07:50:20.483Z,94.40
2019-03-13T07:53:07.923Z,96.40
2019-03-13T07:56:04.847Z,96.70
2019-03-13T07:58:49.795Z,97.40
2019-03-13T08:01:29.820Z,96.60
2019-03-13T08:04:05.065Z,94.90
2019-03-13T08:07:01.405Z,93.90
2019-03-13T08:09:52.410Z,94.00
2019-03-13T08:12:39.309Z,94.70
2019-03-13T08:15:21.810Z,94.20
2019-03-13T08:18:27.756Z,93.70
2019-03-13T08:21:18.765Z,93.00
2019-03-13T08:24:06.387Z,92.40
2019-03-13T08:26:57.444Z,91.50
2019-03-13T08:29:47.771Z,91.80
2019-03-13T08:32:33.235Z,90.90
2019-03-13T08:35:12.520Z,91.10
2019-03-13T08:37:47.728Z,91.90
2019-03-13T08:40:34.505Z,92.40
2019-03-13T08:43:14.234Z,93.10
2019-03-13T08:46:02.449Z,95.20
2019-03-13T08:48:53.116Z,96.00
2019-03-13T08:51:36.822Z,97.10
2019-03-13T08:54:33.383Z,95.00
2019-03-13T08:57:26.640Z,92.40
2019-03-13T09:00:27.212Z,91.60
2019-03-13T09:03:23.977Z,91.00
2019-03-13T09:06:29.852Z,90.80
2019-03-13T09:09:20.096Z,89.40
2019-03-13T09:12:03.404Z,87.70
2019-03-13T09:14:57.035Z,85.10
2019-03-13T09:17:47.961Z,83.60
2019-03-13T09:20:25.656Z,83.00
2019-03-13T09:23:15.042Z,84.80
2019-03-13T09:26:14.729Z,84.50
2019-03-13T09:29:01.156Z,84.60
2019-03-13T09:31:40.393Z,84.40
2019-03-13T09:34:46.415Z,83.90
2019-03-13T09:37:36.963Z,78.30
2019-03-13T09:40:15.274Z,78.30
2019-03-13T09:42:51.371Z,75.40
2019-03-13T09:45:41.696Z,72.60
2019-03-13T09:48:32.252Z,71.50
2019-03-13T09:51:16.104Z,67.80
2019-03-13T09:54:03.995Z,66.30
2019-03-13T09:56:47.916Z,65.20
2019-03-13T09:59:45.341Z,64.30
2019-03-13T10:02:27.086Z,63.00
2019-03-13T10:05:12.999Z,61.90
2019-03-13T10:07:59.224Z,61.00
2019-03-13T10:10:59.012Z,58.70
2019-03-13T10:13:45.798Z,58.90
2019-03-13T10:16:36.743Z,59.10
2019-03-13T10:19:21.595Z,55.00
2019-03-13T10:22:04.798Z,53.70
2019-03-13T10:24:52.809Z,54.80
2019-03-13T10:27:39.584Z,56.80
2019-03-13T10:30:32.397Z,54.60
2019-03-13T10:33:24.174Z,55.80
2019-03-13T10:36:01.637Z,53.50
2019-03-13T10:38:52.014Z,46.50
2019-03-13T10:41:45.501Z,46.20
2019-03-13T10:44:31.819Z,46.00
2019-03-13T10:47:15.649Z,45.50
2019-03-13T10:49:48.889Z,46.00
2019-03-13T10:52:39.250Z,46.10
2019-03-13T10:55:20.794Z,44.90
2019-03-13T10:58:15.847Z,45.90
2019-03-13T11:00:53.677Z,43.60
2019-03-13T11:03:41.214Z,41.90
2019-03-13T11:06:40.729Z,40.90
2019-03-13T11:09:28.411Z,43.00
2019-03-13T11:12:16.312Z,44.60
2019-03-13T11:14:58.712Z,44.40
2019-03-13T11:17:46.321Z,43.90
2019-03-13T11:20:52.290Z,46.50
2019-03-13T11:23:51.565Z,49.70
2019-03-13T11:26:42.230Z,50.20
2019-03-13T11:29:28.929Z,63.40
2019-03-13T11:32:16.674Z,66.20
2019-03-13T11:35:10.405Z,65.00
2019-03-13T11:38:10.261Z,65.20
2019-03-13T11:40:49.729Z,61.90
2019-03-13T11:43:36.741Z,61.30
2019-03-13T11:46:33.357Z,61.10
2019-03-13T11:49:11.407Z,61.50
2019-03-13T11:51:50.314Z,59.30
2019-03-13T11:54:34.595Z,50.10
2019-03-13T11:57:09.070Z,50.80
2019-03-13T11:59:59.814Z,54.60
2019-03-13T12:02:53.480Z,51.80
2019-03-13T12:05:36.009Z,52.50
2019-03-13T12:08:11.019Z,45.40
2019-03-13T12:10:58.902Z,47.50
2019-03-13T12:13:52.431Z,45.70
2019-03-13T12:16:49.614Z,46.90
2019-03-13T12:19:29.291Z,47.90
2019-03-13T12:22:32.094Z,49.60
2019-03-13T12:25:12.131Z,51.10
2019-03-13T12:28:02.443Z,49.60
2019-03-13T12:30:36.772Z,48.90
2019-03-13T12:33:35.398Z,47.60
2019-03-13T12:36:10.768Z,48.00
2019-03-13T12:39:10.678Z,46.60
2019-03-13T12:42:05.801Z,45.20
2019-03-13T12:45:02.747Z,45.70
2019-03-13T12:47:46.551Z,46.00
2019-03-13T12:50:28.355Z,43.50
2019-03-13T12:53:03.664Z,42.20
2019-03-13T12:55:50.417Z,44.80
2019-03-13T12:58:42.888Z,44.80
2019-03-13T13:01:20.640Z,45.40
2019-03-13T13:04:05.654Z,43.20
2019-03-13T13:07:02.608Z,42.50
2019-03-13T13:09:55.835Z,38.30
2019-03-13T13:12:59.225Z,36.90
2019-03-13T13:15:45.789Z,37.90
2019-03-13T13:18:40.257Z,39.70
2019-03-13T13:21:08.298Z,41.00
2019-03-13T13:23:36.472Z,42.40
2019-03-13T13:26:09.048Z,42.40
2019-03-13T13:28:37.346Z,41.80
2019-03-13T13:31:05.234Z,43.10
2019-03-13T13:33:33.228Z,41.60
2019-03-13T13:36:01.097Z,40.90
2019-03-13T13:38:29.261Z,40.90
2019-03-13T13:40:57.460Z,41.00
2019-03-13T13:43:25.874Z,41.60
2019-03-13T13:46:09.929Z,43.10
2019-03-13T13:48:38.014Z,62.00
2019-03-13T13:51:06.171Z,63.70
2019-03-13T13:53:34.121Z,67.40
2019-03-13T13:56:02.022Z,67.60
2019-03-13T13:58:30.387Z,62.20
2019-03-13T14:00:58.579Z,64.60
2019-03-13T14:03:26.744Z,65.60
2019-03-13T14:05:55.085Z,63.90
2019-03-13T14:08:23.729Z,65.10
2019-03-13T14:10:51.769Z,57.60
2019-03-13T14:13:19.879Z,60.20
2019-03-13T14:15:52.019Z,59.00
2019-03-13T14:18:20.109Z,49.00
2019-03-13T14:20:48.172Z,55.70
2019-03-13T14:23:16.276Z,54.50
2019-03-13T14:25:44.247Z,53.70
2019-03-13T14:28:12.290Z,52.40
2019-03-13T14:30:40.385Z,54.40
2019-03-13T14:33:08.252Z,50.00
2019-03-13T14:35:36.584Z,49.40
2019-03-13T14:38:04.674Z,50.00
2019-03-13T14:40:33.051Z,56.20
2019-03-13T14:43:01.205Z,52.10
2019-03-13T14:45:29.353Z,52.00
2019-03-13T14:47:57.431Z,51.80
2019-03-13T14:50:25.644Z,51.90
2019-03-13T14:52:53.684Z,52.70
2019-03-13T14:55:23.192Z,52.80
2019-03-13T14:57:51.961Z,54.90
2019-03-13T15:00:20.546Z,53.80
2019-03-13T15:02:48.623Z,53.90
2019-03-13T15:05:17.057Z,54.00
2019-03-13T15:07:45.316Z,55.10
2019-03-13T15:10:13.889Z,55.40
2019-03-13T15:12:43.205Z,57.50
2019-03-13T15:15:12.048Z,59.30
2019-03-13T15:17:40.133Z,60.30
2019-03-13T15:20:13.051Z,60.90
2019-03-13T15:22:42.194Z,62.20
2019-03-13T15:25:14.138Z,62.20
2019-03-13T15:27:42.426Z,61.80
2019-03-13T15:30:19.217Z,62.30
2019-03-13T15:32:47.844Z,62.20
2019-03-13T15:35:16.122Z,62.10
2019-03-13T15:37:44.754Z,61.90
2019-03-13T15:40:14.823Z,61.80
2019-03-13T15:42:43.251Z,61.90
2019-03-13T15:45:14.833Z,61.90
2019-03-13T15:47:42.940Z,61.90
2019-03-13T15:50:12.073Z,62.40
2019-03-13T15:52:40.602Z,62.30
2019-03-13T15:55:10.359Z,62.80
2019-03-13T15:57:38.259Z,62.70
2019-03-13T16:00:11.705Z,62.80
2019-03-13T16:02:40.284Z,63.40
2019-03-13T16:05:08.342Z,63.50
2019-03-13T16:07:36.919Z,63.60
2019-03-13T16:10:06.410Z,63.70
2019-03-13T16:12:34.384Z,64.10
2019-03-13T16:15:02.873Z,62.70
2019-03-13T16:17:30.901Z,62.60
2019-03-13T16:19:58.812Z,62.20
2019-03-13T16:22:27.029Z,62.40
2019-03-13T16:24:55.189Z,61.90
2019-03-13T16:27:23.161Z,61.90
2019-03-13T16:29:51.547Z,61.90
2019-03-13T16:32:20.118Z,61.90
2019-03-13T16:34:48.122Z,61.60
2019-03-13T16:37:16.191Z,61.30
2019-03-13T16:39:44.322Z,61.80
2019-03-13T16:42:12.371Z,61.90
2019-03-13T16:44:40.914Z,61.20
2019-03-13T16:47:08.986Z,61.50
2019-03-13T16:49:39.134Z,61.40
2019-03-13T16:52:07.866Z,61.20
2019-03-13T16:54:36.069Z,61.30
2019-03-13T16:57:04.274Z,61.40
2019-03-13T16:59:32.884Z,61.10
2019-03-13T17:02:00.941Z,61.30
2019-03-13T17:04:29.475Z,61.70
2019-03-13T17:06:57.522Z,61.30
2019-03-13T17:09:25.895Z,61.60
2019-03-13T17:11:54.230Z,62.40
2019-03-13T17:14:22.734Z,61.90
2019-03-13T17:16:50.855Z,61.90
2019-03-13T17:19:19.320Z,61.90
2019-03-13T17:21:47.773Z,62.10
2019-03-13T17:24:15.922Z,62.80
2019-03-13T17:26:43.914Z,67.50
2019-03-13T17:29:11.967Z,73.20
2019-03-13T17:31:47.520Z,88.70
2019-03-13T17:34:15.427Z,95.30
2019-03-13T17:36:43.968Z,99.90
2019-03-13T17:39:12.544Z,99.90
2019-03-13T17:41:40.623Z,99.90
2019-03-13T17:44:08.786Z,99.90
2019-03-13T17:46:38.082Z,99.90
2019-03-13T17:49:06.579Z,99.90
2019-03-13T17:51:34.799Z,99.90
2019-03-13T17:54:03.374Z,99.90
2019-03-13T17:56:32.044Z,99.90
2019-03-13T17:59:00.481Z,99.90
2019-03-13T18:01:28.776Z,99.90
2019-03-13T18:03:57.120Z,99.90
2019-03-13T18:06:25.189Z,99.90
2019-03-13T18:08:53.275Z,99.90
2019-03-13T18:11:21.352Z,99.90
2019-03-13T18:13:49.985Z,99.90
2019-03-13T18:16:18.401Z,99.90
2019-03-13T18:18:46.671Z,99.90
2019-03-13T18:21:14.936Z,99.90
2019-03-13T18:23:43.101Z,99.90
2019-03-13T18:26:11.786Z,99.90
2019-03-13T18:28:40.346Z,99.90
2019-03-13T18:31:08.377Z,99.90
2019-03-13T18:33:36.752Z,99.90
2019-03-13T18:36:05.094Z,99.90
2019-03-13T18:38:33.821Z,99.90
2019-03-13T18:41:01.964Z,99.90
2019-03-13T18:43:30.522Z,99.90
2019-03-13T18:45:58.784Z,99.90
2019-03-13T18:48:27.380Z,99.90
2019-03-13T18:50:55.568Z,99.90
2019-03-13T18:53:23.808Z,99.90
2019-03-13T18:55:52.064Z,99.90
2019-03-13T18:58:20.400Z,99.90
2019-03-13T19:00:48.513Z,99.90
2019-03-13T19:03:16.681Z,99.90
2019-03-13T19:05:45.016Z,99.90
2019-03-13T19:08:13.045Z,99.90
2019-03-13T19:10:41.065Z,99.90
2019-03-13T19:13:09.271Z,99.90
2019-03-13T19:15:39.930Z,99.90
2019-03-13T19:18:07.369Z,99.90
2019-03-13T19:20:35.561Z,99.90
2019-03-13T19:23:03.519Z,99.90
2019-03-13T19:25:31.708Z,99.90
2019-03-13T19:27:59.817Z,99.90
2019-03-13T19:30:29.347Z,99.90
2019-03-13T19:32:57.535Z,99.90
2019-03-13T19:35:25.614Z,99.90
2019-03-13T19:37:54.605Z,99.90
2019-03-13T19:40:22.843Z,99.90
2019-03-13T19:42:51.040Z,99.90
2019-03-13T19:45:23.219Z,99.90
2019-03-13T19:47:51.573Z,99.90
2019-03-13T19:50:19.594Z,99.90
2019-03-13T19:52:47.825Z,99.90
2019-03-13T19:55:16.847Z,99.90
2019-03-13T19:57:45.601Z,99.90
2019-03-13T20:00:16.491Z,99.90
2019-03-13T20:02:44.562Z,99.90
2019-03-13T20:05:14.279Z,99.90
2019-03-13T20:07:42.441Z,99.90
2019-03-13T20:10:17.336Z,99.90
2019-03-13T20:12:45.375Z,99.90
2019-03-13T20:15:17.414Z,99.90
2019-03-13T20:17:45.841Z,99.90
2019-03-13T20:20:17.314Z,99.90
2019-03-13T20:22:46.287Z,99.90
2019-03-13T20:25:17.637Z,99.90
2019-03-13T20:27:45.237Z,99.90
2019-03-13T20:30:16.677Z,99.90
2019-03-13T20:32:44.967Z,99.90
2019-03-13T20:35:13.605Z,99.90
2019-03-13T20:37:41.970Z,99.90
2019-03-13T20:40:13.522Z,99.90
2019-03-13T20:42:44.614Z,99.90
2019-03-13T20:45:16.141Z,99.90
2019-03-13T20:47:44.678Z,99.90
2019-03-13T20:50:12.873Z,99.90
2019-03-13T20:52:41.124Z,99.90
2019-03-13T20:55:11.578Z,99.90
2019-03-13T20:57:39.579Z,99.90
2019-03-13T21:00:10.678Z,99.90
2019-03-13T21:02:38.690Z,99.90
2019-03-13T21:05:08.864Z,99.90
2019-03-13T21:07:37.137Z,99.90
2019-03-13T21:10:06.772Z,99.90
2019-03-13T21:12:35.122Z,99.90
2019-03-13T21:15:04.708Z,99.90
2019-03-13T21:17:33.413Z,99.90
2019-03-13T21:20:01.511Z,99.90
2019-03-13T21:22:29.635Z,99.90
2019-03-13T21:24:57.854Z,99.90
2019-03-13T21:27:25.779Z,99.90
2019-03-13T21:29:54.212Z,99.90
2019-03-13T21:32:22.187Z,99.90
2019-03-13T21:34:50.268Z,99.90
2019-03-13T21:37:18.388Z,99.90
2019-03-13T21:39:46.479Z,99.90
2019-03-13T21:42:14.582Z,99.90
2019-03-13T21:44:43.036Z,99.90
2019-03-13T21:47:10.976Z,99.90
2019-03-13T21:49:39.217Z,99.90
2019-03-13T21:52:07.327Z,99.90
2019-03-13T21:54:35.504Z,99.90
2019-03-13T21:57:03.565Z,99.90
2019-03-13T21:59:31.707Z,99.90
2019-03-13T22:02:00.108Z,99.90
2019-03-13T22:04:28.316Z,99.90
2019-03-13T22:06:56.760Z,99.90
2019-03-13T22:09:24.729Z,99.90
2019-03-13T22:11:52.770Z,99.90
2019-03-13T22:14:20.948Z,99.90
2019-03-13T22:16:48.873Z,99.90
2019-03-13T22:19:16.813Z,99.90
2019-03-13T22:21:45.307Z,99.90
2019-03-13T22:24:13.650Z,99.90
2019-03-13T22:27:00.982Z,99.90
2019-03-13T22:29:28.854Z,99.90
2019-03-13T22:31:56.953Z,99.90
2019-03-13T22:34:25.211Z,99.90
2019-03-13T22:36:53.339Z,99.90
2019-03-13T22:39:21.830Z,99.90
2019-03-13T22:41:49.930Z,99.90
2019-03-13T22:44:18.148Z,99.90
2019-03-13T22:46:46.298Z,99.90
2019-03-13T22:49:14.287Z,99.90
2019-03-13T22:51:42.432Z,99.90
2019-03-13T22:54:10.981Z,99.90
2019-03-13T22:56:39.136Z,99.90
2019-03-13T22:59:07.063Z,99.90
2019-03-13T23:01:37.910Z,99.90
2019-03-13T23:04:05.947Z,99.90
2019-03-13T23:06:34.253Z,99.90
2019-03-13T23:09:04.459Z,99.90
2019-03-13T23:11:32.878Z,99.90
2019-03-13T23:14:00.805Z,99.90
2019-03-13T23:16:29.929Z,99.90
2019-03-13T23:18:58.068Z,99.90
2019-03-13T23:21:26.595Z,99.90
2019-03-13T23:23:54.595Z,99.90
2019-03-13T23:26:23.461Z,99.90
2019-03-13T23:28:52.172Z,99.90
2019-03-13T23:31:20.361Z,99.90
2019-03-13T23:33:48.237Z,99.90
2019-03-13T23:36:16.174Z,99.90
2019-03-13T23:38:44.138Z,99.90
2019-03-13T23:41:12.527Z,99.90
2019-03-13T23:43:40.441Z,99.90
2019-03-13T23:46:08.353Z,99.90
2019-03-13T23:48:36.288Z,99.90
2019-03-13T23:51:04.478Z,99.90
2019-03-13T23:53:33.936Z,99.90
2019-03-13T23:56:04.005Z,99.90
2019-03-13T23:58:32.044Z,99.90
